createdAt,value
2022-11-28T00:02:10.266Z,0.62
2022-11-28T00:04:42.261Z,0.61
2022-11-28T00:07:14.748Z,0.54
2022-11-28T00:09:46.643Z,0.55
2022-11-28T00:12:18.208Z,0.55
2022-11-28T00:14:49.725Z,0.55
2022-11-28T00:17:21.621Z,0.56
2022-11-28T00:19:53.149Z,0.55
2022-11-28T00:22:24.617Z,0.53
2022-11-28T00:24:56.397Z,0.53
2022-11-28T00:27:27.941Z,0.56
2022-11-28T00:29:59.818Z,0.61
2022-11-28T00:32:31.397Z,0.65
2022-11-28T00:35:03.120Z,0.74
2022-11-28T00:37:34.659Z,0.85
2022-11-28T00:40:07.448Z,0.94
2022-11-28T00:42:39.293Z,1.04
2022-11-28T00:45:12.019Z,1.15
2022-11-28T00:47:43.612Z,1.24
2022-11-28T00:50:14.951Z,1.30
2022-11-28T00:52:46.471Z,1.39
2022-11-28T00:55:18.178Z,1.45
2022-11-28T00:57:50.326Z,1.47
2022-11-28T01:00:23.621Z,1.46
2022-11-28T01:02:55.115Z,1.42
2022-11-28T01:05:26.712Z,1.34
2022-11-28T01:07:58.211Z,1.26
2022-11-28T01:10:29.872Z,1.19
2022-11-28T01:13:01.431Z,1.17
2022-11-28T01:15:32.971Z,1.13
2022-11-28T01:18:04.468Z,1.05
2022-11-28T01:20:35.996Z,1.00
2022-11-28T01:23:07.654Z,0.97
2022-11-28T01:25:39.211Z,0.95
2022-11-28T01:28:10.756Z,0.91
2022-11-28T01:30:42.361Z,0.89
2022-11-28T01:33:14.246Z,0.90
2022-11-28T01:35:54.510Z,0.95
2022-11-28T01:38:26.829Z,1.04
2022-11-28T01:40:59.285Z,1.09
2022-11-28T01:43:31.084Z,1.11
2022-11-28T01:46:03.099Z,1.18
2022-11-28T01:48:40.010Z,1.20
2022-11-28T01:51:12.893Z,1.10
2022-11-28T01:53:47.593Z,1.14
2022-11-28T01:56:25.998Z,1.25
2022-11-28T01:59:03.604Z,1.32
2022-11-28T02:01:35.489Z,1.45
2022-11-28T02:04:07.396Z,1.49
2022-11-28T02:06:38.953Z,1.52
2022-11-28T02:09:13.650Z,1.56
2022-11-28T02:12:20.328Z,1.56
2022-11-28T02:15:32.227Z,1.54
2022-11-28T02:18:18.182Z,1.40
2022-11-28T02:21:23.979Z,1.40
2022-11-28T02:24:31.447Z,1.37
2022-11-28T02:27:22.179Z,1.38
2022-11-28T02:30:13.647Z,1.38
2022-11-28T02:33:14.030Z,1.40
2022-11-28T02:35:56.878Z,1.42
2022-11-28T02:38:43.383Z,1.44
2022-11-28T02:41:27.859Z,1.47
2022-11-28T02:44:11.062Z,1.54
2022-11-28T02:46:52.723Z,1.62
2022-11-28T02:49:29.701Z,1.71
2022-11-28T02:52:07.278Z,1.84
2022-11-28T02:54:40.795Z,1.92
2022-11-28T02:57:12.572Z,1.99
2022-11-28T02:59:52.010Z,2.03
2022-11-28T03:02:29.249Z,2.06
2022-11-28T03:05:08.896Z,2.10
2022-11-28T03:07:57.491Z,2.15
2022-11-28T03:10:34.840Z,2.13
2022-11-28T03:13:16.157Z,2.14
2022-11-28T03:15:58.100Z,2.11
2022-11-28T03:18:39.650Z,2.10
2022-11-28T03:21:18.921Z,2.07
2022-11-28T03:23:56.105Z,2.05
2022-11-28T03:26:36.014Z,2.03
2022-11-28T03:29:14.395Z,1.99
2022-11-28T03:31:50.545Z,1.95
2022-11-28T03:34:28.066Z,1.93
2022-11-28T03:37:04.317Z,1.92
2022-11-28T03:39:39.279Z,1.91
2022-11-28T03:42:15.840Z,1.91
2022-11-28T03:44:50.751Z,1.98
2022-11-28T03:47:23.257Z,2.03
2022-11-28T03:49:58.764Z,2.10
2022-11-28T03:52:34.042Z,2.19
2022-11-28T03:55:12.429Z,2.26
2022-11-28T03:57:50.908Z,2.27
2022-11-28T04:00:25.176Z,2.32
2022-11-28T04:03:03.790Z,2.28
2022-11-28T04:05:43.184Z,2.27
2022-11-28T04:08:18.633Z,2.32
2022-11-28T04:10:58.055Z,2.33
2022-11-28T04:13:33.851Z,2.21
2022-11-28T04:16:11.252Z,2.16
2022-11-28T04:18:51.464Z,2.19
2022-11-28T04:21:30.903Z,2.21
2022-11-28T04:24:06.498Z,2.18
2022-11-28T04:26:42.417Z,2.16
2022-11-28T04:29:19.811Z,2.11
2022-11-28T04:31:55.749Z,2.09
2022-11-28T04:34:30.449Z,2.10
2022-11-28T04:37:08.311Z,2.11
2022-11-28T04:39:45.914Z,2.15
2022-11-28T04:42:22.282Z,2.20
2022-11-28T04:44:57.821Z,2.29
2022-11-28T04:47:30.315Z,2.39
2022-11-28T04:50:02.007Z,2.46
2022-11-28T04:52:41.116Z,2.53
2022-11-28T04:55:19.815Z,2.57
2022-11-28T04:57:57.422Z,2.63
2022-11-28T05:00:29.729Z,2.70
2022-11-28T05:03:01.483Z,2.73
2022-11-28T05:05:33.533Z,2.73
2022-11-28T05:08:05.354Z,2.73
2022-11-28T05:10:37.102Z,2.74
2022-11-28T05:13:08.851Z,2.72
2022-11-28T05:15:40.446Z,2.71
2022-11-28T05:18:12.291Z,2.69
2022-11-28T05:20:44.244Z,2.64
2022-11-28T05:23:15.754Z,2.61
2022-11-28T05:25:47.228Z,2.57
2022-11-28T05:28:18.791Z,2.54
2022-11-28T05:30:59.311Z,2.50
2022-11-28T05:33:31.331Z,2.46
2022-11-28T05:36:11.381Z,2.47
2022-11-28T05:38:45.650Z,2.52
2022-11-28T05:41:25.102Z,2.56
2022-11-28T05:43:57.160Z,2.62
2022-11-28T05:46:29.691Z,2.70
2022-11-28T05:49:01.693Z,2.81
2022-11-28T05:51:33.383Z,2.92
2022-11-28T05:54:05.390Z,3.00
2022-11-28T05:56:42.259Z,3.07
2022-11-28T05:59:15.128Z,3.13
2022-11-28T06:01:46.651Z,3.12
2022-11-28T06:04:18.308Z,3.08
2022-11-28T06:06:52.433Z,3.07
2022-11-28T06:09:26.009Z,3.03
2022-11-28T06:11:57.947Z,2.98
2022-11-28T06:14:29.444Z,2.92
2022-11-28T06:17:01.233Z,2.89
2022-11-28T06:19:33.237Z,2.83
2022-11-28T06:22:04.719Z,2.80
2022-11-28T06:24:36.288Z,2.76
2022-11-28T06:27:07.976Z,2.74
2022-11-28T06:29:39.488Z,2.74
2022-11-28T06:32:11.092Z,2.76
2022-11-28T06:34:42.756Z,2.79
2022-11-28T06:37:14.402Z,2.83
2022-11-28T06:39:46.357Z,2.88
2022-11-28T06:42:18.233Z,2.96
2022-11-28T06:44:49.728Z,3.03
2022-11-28T06:47:21.433Z,3.09
2022-11-28T06:49:52.975Z,3.16
2022-11-28T06:52:24.540Z,3.22
2022-11-28T06:54:56.295Z,3.26
2022-11-28T06:57:28.442Z,3.28
2022-11-28T06:59:59.990Z,3.21
2022-11-28T07:02:31.755Z,3.15
2022-11-28T07:05:03.477Z,3.09
2022-11-28T07:07:49.998Z,3.09
2022-11-28T07:10:25.664Z,3.10
2022-11-28T07:13:04.940Z,3.10
2022-11-28T07:15:37.105Z,3.09
2022-11-28T07:18:08.829Z,3.06
2022-11-28T07:20:40.502Z,3.05
2022-11-28T07:23:12.234Z,3.04
2022-11-28T07:25:43.870Z,3.03
2022-11-28T07:28:18.438Z,3.02
2022-11-28T07:30:58.738Z,3.09
2022-11-28T07:33:31.129Z,3.13
2022-11-28T07:36:09.124Z,3.18
2022-11-28T07:38:40.756Z,3.25
2022-11-28T07:41:13.855Z,3.31
2022-11-28T07:43:47.676Z,3.37
2022-11-28T07:46:21.079Z,3.34
2022-11-28T07:48:52.711Z,3.35
2022-11-28T07:51:26.228Z,3.33
2022-11-28T07:53:58.245Z,3.25
2022-11-28T07:56:57.163Z,3.24
2022-11-28T07:59:24.821Z,3.24
2022-11-28T08:01:56.426Z,3.22
2022-11-28T08:04:28.082Z,3.17
2022-11-28T08:06:59.741Z,3.17
2022-11-28T08:09:32.281Z,3.18
2022-11-28T08:12:03.808Z,3.23
2022-11-28T08:14:35.296Z,3.22
2022-11-28T08:17:06.814Z,3.22
2022-11-28T08:19:38.547Z,3.20
2022-11-28T08:22:10.042Z,3.25
2022-11-28T08:24:42.057Z,3.31
2022-11-28T08:27:13.979Z,3.40
2022-11-28T08:29:50.395Z,3.48
2022-11-28T08:32:23.810Z,3.49
2022-11-28T08:34:55.448Z,3.54
2022-11-28T08:37:26.981Z,3.56
2022-11-28T08:39:58.607Z,3.56
2022-11-28T08:42:30.331Z,3.53
2022-11-28T08:45:02.169Z,3.50
2022-11-28T08:47:33.792Z,3.51
2022-11-28T08:50:06.466Z,3.49
2022-11-28T08:52:38.075Z,3.49
2022-11-28T08:55:11.013Z,3.50
2022-11-28T08:57:42.517Z,3.54
2022-11-28T09:00:16.984Z,3.58
2022-11-28T09:02:48.509Z,3.59
2022-11-28T09:05:20.071Z,3.55
2022-11-28T09:07:51.621Z,3.55
2022-11-28T09:10:23.225Z,3.57
2022-11-28T09:12:55.427Z,3.52
2022-11-28T09:15:27.000Z,3.49
2022-11-28T09:17:58.457Z,3.42
2022-11-28T09:20:30.132Z,3.46
2022-11-28T09:23:01.669Z,3.52
2022-11-28T09:25:35.458Z,3.58
2022-11-28T09:28:07.894Z,3.64
2022-11-28T09:30:39.690Z,3.69
2022-11-28T09:33:12.552Z,3.67
2022-11-28T09:35:44.310Z,3.62
2022-11-28T09:38:15.960Z,3.57
2022-11-28T09:40:47.729Z,3.56
2022-11-28T09:43:24.833Z,3.60
2022-11-28T09:45:57.499Z,3.56
2022-11-28T09:48:35.133Z,3.58
2022-11-28T09:51:18.976Z,3.59
2022-11-28T09:53:56.155Z,3.60
2022-11-28T09:56:28.224Z,3.64
2022-11-28T09:59:03.550Z,3.67
2022-11-28T10:01:42.445Z,3.78
2022-11-28T10:04:19.817Z,3.90
2022-11-28T10:07:03.659Z,3.99
2022-11-28T10:09:49.150Z,4.09
2022-11-28T10:12:34.608Z,4.14
2022-11-28T10:15:29.296Z,4.16
2022-11-28T10:18:16.343Z,4.20
2022-11-28T10:20:52.676Z,4.29
2022-11-28T10:23:29.930Z,4.29
2022-11-28T10:26:07.701Z,4.31
2022-11-28T10:28:43.848Z,4.32
2022-11-28T10:31:22.110Z,4.36
2022-11-28T10:34:00.227Z,4.44
2022-11-28T10:36:49.742Z,4.52
2022-11-28T10:39:21.426Z,4.57
2022-11-28T10:42:13.676Z,4.61
2022-11-28T10:44:59.296Z,4.75
2022-11-28T10:47:48.776Z,4.86
2022-11-28T10:50:32.491Z,4.93
2022-11-28T10:53:08.992Z,4.92
2022-11-28T10:55:46.176Z,4.93
2022-11-28T10:58:22.647Z,4.93
2022-11-28T11:00:58.835Z,4.96
2022-11-28T11:03:32.636Z,4.96
2022-11-28T11:06:05.114Z,4.96
2022-11-28T11:08:40.368Z,5.01
2022-11-28T11:11:24.286Z,5.06
2022-11-28T11:14:04.733Z,5.07
2022-11-28T11:16:53.749Z,5.13
2022-11-28T11:19:32.461Z,5.11
2022-11-28T11:22:15.989Z,5.16
2022-11-28T11:25:04.849Z,5.18
2022-11-28T11:27:38.204Z,5.11
2022-11-28T11:30:28.656Z,5.10
2022-11-28T11:33:02.632Z,5.13
2022-11-28T11:35:44.036Z,5.18
2022-11-28T11:38:31.273Z,5.24
2022-11-28T11:41:28.875Z,5.24
2022-11-28T11:44:35.244Z,5.19
2022-11-28T11:47:08.882Z,5.30
2022-11-28T11:49:40.189Z,5.40
2022-11-28T11:52:22.160Z,5.49
2022-11-28T11:55:03.356Z,5.54
2022-11-28T11:57:39.763Z,5.58
2022-11-28T12:00:20.794Z,5.59
2022-11-28T12:02:57.844Z,5.62
2022-11-28T12:05:52.704Z,5.67
2022-11-28T12:08:34.023Z,5.69
2022-11-28T12:11:15.785Z,5.73
2022-11-28T12:13:47.628Z,5.75
2022-11-28T12:16:38.085Z,5.81
2022-11-28T12:19:20.390Z,5.84
2022-11-28T12:22:05.556Z,5.88
2022-11-28T12:24:47.453Z,5.92
2022-11-28T12:27:32.583Z,5.98
2022-11-28T12:30:20.658Z,6.04
2022-11-28T12:33:06.455Z,6.02
2022-11-28T12:35:41.924Z,6.03
2022-11-28T12:38:27.209Z,6.01
2022-11-28T12:41:15.205Z,6.07
2022-11-28T12:44:00.150Z,6.09
2022-11-28T12:46:41.058Z,6.14
2022-11-28T12:49:20.115Z,6.11
2022-11-28T12:52:05.249Z,6.07
2022-11-28T12:54:50.818Z,6.06
2022-11-28T12:57:33.542Z,6.01
2022-11-28T13:00:11.697Z,5.94
2022-11-28T13:02:57.071Z,5.91
2022-11-28T13:05:38.908Z,5.93
2022-11-28T13:08:31.760Z,5.94
2022-11-28T13:11:14.895Z,5.94
2022-11-28T13:13:52.787Z,5.96
2022-11-28T13:16:31.785Z,6.00
2022-11-28T13:19:12.484Z,5.95
2022-11-28T13:21:53.960Z,5.92
2022-11-28T13:24:32.720Z,5.90
2022-11-28T13:27:11.940Z,5.83
2022-11-28T13:29:52.522Z,5.77
2022-11-28T13:32:32.067Z,5.70
2022-11-28T13:35:04.783Z,5.66
2022-11-28T13:40:41.196Z,5.59
2022-11-28T13:43:21.106Z,5.59
2022-11-28T13:45:53.256Z,5.62
2022-11-28T13:52:35.151Z,5.61
2022-11-28T13:55:27.863Z,5.55
2022-11-28T13:57:59.684Z,5.50
2022-11-28T14:00:31.281Z,5.46
2022-11-28T14:03:02.943Z,5.39
2022-11-28T14:05:37.998Z,5.37
2022-11-28T14:08:25.256Z,5.33
2022-11-28T14:11:11.314Z,5.27
2022-11-28T14:14:07.163Z,5.21
2022-11-28T14:16:56.035Z,5.10
2022-11-28T14:19:39.972Z,5.05
2022-11-28T14:22:18.878Z,5.01
2022-11-28T14:24:58.882Z,5.03
2022-11-28T14:27:33.393Z,5.00
2022-11-28T14:30:06.111Z,4.95
2022-11-28T14:32:41.733Z,4.93
2022-11-28T14:35:39.321Z,4.90
2022-11-28T14:38:43.538Z,4.83
2022-11-28T14:41:16.820Z,4.74
2022-11-28T14:43:49.556Z,4.67
2022-11-28T14:46:33.703Z,4.62
2022-11-28T14:49:23.220Z,4.56
2022-11-28T14:52:38.465Z,4.47
2022-11-28T14:55:22.457Z,4.36
2022-11-28T14:58:00.462Z,4.25
2022-11-28T15:00:44.066Z,4.15
2022-11-28T15:03:36.788Z,4.07
2022-11-28T15:06:14.725Z,3.99
2022-11-28T15:09:00.987Z,3.92
2022-11-28T15:12:04.893Z,3.83
2022-11-28T15:14:37.654Z,3.75
2022-11-28T15:17:14.697Z,3.74
2022-11-28T15:19:50.087Z,3.73
2022-11-28T15:22:40.521Z,3.72
2022-11-28T15:25:22.724Z,3.70
2022-11-28T15:27:55.518Z,3.64
2022-11-28T15:30:28.296Z,3.65
2022-11-28T15:33:01.455Z,3.59
2022-11-28T15:35:33.240Z,3.57
2022-11-28T15:38:04.975Z,3.55
2022-11-28T15:40:38.160Z,3.49
2022-11-28T15:43:14.889Z,3.41
2022-11-28T15:45:51.441Z,3.34
2022-11-28T15:48:39.323Z,3.21
2022-11-28T15:51:27.872Z,3.11
2022-11-28T15:54:00.395Z,3.07
2022-11-28T15:56:34.855Z,3.09
2022-11-28T15:59:06.594Z,3.12
2022-11-28T16:01:38.392Z,3.11
2022-11-28T16:04:15.931Z,3.08
2022-11-28T16:06:51.382Z,3.02
2022-11-28T16:09:30.858Z,2.98
2022-11-28T16:12:03.846Z,2.93
2022-11-28T16:14:43.844Z,2.90
2022-11-28T16:17:23.357Z,2.82
2022-11-28T16:19:57.678Z,2.77
2022-11-28T16:22:34.812Z,2.72
2022-11-28T16:25:23.449Z,2.64
2022-11-28T16:27:57.383Z,2.54
2022-11-28T16:30:37.431Z,2.49
2022-11-28T16:33:39.795Z,2.45
2022-11-28T16:36:19.033Z,2.44
2022-11-28T16:38:52.618Z,2.44
2022-11-28T16:41:24.847Z,2.47
2022-11-28T16:44:02.617Z,2.49
2022-11-28T16:46:37.731Z,2.48
2022-11-28T16:49:29.739Z,2.47
2022-11-28T16:52:43.826Z,2.44
2022-11-28T16:55:40.420Z,2.36
2022-11-28T16:58:20.826Z,2.25
2022-11-28T17:01:11.244Z,2.21
2022-11-28T17:03:48.998Z,2.17
2022-11-28T17:06:28.539Z,2.11
2022-11-28T17:09:00.179Z,2.07
2022-11-28T17:11:35.101Z,1.99
2022-11-28T17:14:13.105Z,1.95
2022-11-28T17:16:45.569Z,1.93
2022-11-28T17:19:17.640Z,1.91
2022-11-28T17:21:51.838Z,1.91
2022-11-28T17:24:25.512Z,1.91
2022-11-28T17:26:57.065Z,1.89
2022-11-28T17:29:29.348Z,1.90
2022-11-28T17:32:02.191Z,1.91
2022-11-28T17:34:35.253Z,1.91
2022-11-28T17:37:06.972Z,1.91
2022-11-28T17:39:38.545Z,1.89
2022-11-28T17:42:11.313Z,1.87
2022-11-28T17:44:43.271Z,1.85
2022-11-28T17:47:15.033Z,1.83
2022-11-28T17:49:46.764Z,1.78
2022-11-28T17:52:20.269Z,1.73
2022-11-28T17:54:50.271Z,1.68
2022-11-28T17:57:22.993Z,1.64
2022-11-28T17:59:55.079Z,1.59
2022-11-28T18:02:26.759Z,1.53
2022-11-28T18:04:58.387Z,1.47
2022-11-28T18:07:30.135Z,1.42
2022-11-28T18:10:01.787Z,1.36
2022-11-28T18:12:33.574Z,1.30
2022-11-28T18:15:05.826Z,1.28
2022-11-28T18:17:38.096Z,1.29
2022-11-28T18:20:12.237Z,1.32
2022-11-28T18:22:43.789Z,1.31
2022-11-28T18:25:15.615Z,1.33
2022-11-28T18:27:47.105Z,1.38
2022-11-28T18:30:19.459Z,1.41
2022-11-28T18:32:51.008Z,1.48
2022-11-28T18:35:22.698Z,1.51
2022-11-28T18:37:54.587Z,1.53
2022-11-28T18:40:26.386Z,1.52
2022-11-28T18:42:58.533Z,1.50
2022-11-28T18:45:30.157Z,1.47
2022-11-28T18:48:02.823Z,1.40
2022-11-28T18:50:35.244Z,1.35
2022-11-28T18:53:06.776Z,1.28
2022-11-28T18:55:38.279Z,1.22
2022-11-28T18:58:09.803Z,1.15
2022-11-28T19:00:41.346Z,1.09
2022-11-28T19:03:12.852Z,1.02
2022-11-28T19:05:45.534Z,0.94
2022-11-28T19:08:17.040Z,0.87
2022-11-28T19:10:48.561Z,0.79
2022-11-28T19:13:21.128Z,0.74
2022-11-28T19:15:52.694Z,0.69
2022-11-28T19:18:24.269Z,0.63
2022-11-28T19:20:55.845Z,0.59
2022-11-28T19:23:27.354Z,0.58
2022-11-28T19:26:01.592Z,0.58
2022-11-28T19:28:33.400Z,0.61
2022-11-28T19:31:09.429Z,0.62
2022-11-28T19:33:41.582Z,0.68
2022-11-28T19:36:15.817Z,0.78
2022-11-28T19:38:47.691Z,0.85
2022-11-28T19:41:20.709Z,0.90
2022-11-28T19:43:52.629Z,0.98
2022-11-28T19:46:24.507Z,1.05
2022-11-28T19:48:56.048Z,1.03
2022-11-28T19:51:27.904Z,1.01
2022-11-28T19:54:03.524Z,0.99
2022-11-28T19:56:35.643Z,0.94
2022-11-28T19:59:07.149Z,0.89
2022-11-28T20:01:40.501Z,0.85
2022-11-28T20:04:12.443Z,0.77
2022-11-28T20:06:44.092Z,0.71
2022-11-28T20:09:15.589Z,0.63
2022-11-28T20:11:47.219Z,0.56
2022-11-28T20:14:20.660Z,0.51
2022-11-28T20:16:50.716Z,0.43
2022-11-28T20:19:22.856Z,0.34
2022-11-28T20:21:55.180Z,0.24
2022-11-28T20:24:27.049Z,0.16
2022-11-28T20:26:58.678Z,0.08
2022-11-28T20:29:31.332Z,0.02
2022-11-28T20:32:02.947Z,-0.04
2022-11-28T20:34:34.633Z,-0.08
2022-11-28T20:37:06.171Z,-0.09
2022-11-28T20:39:38.084Z,-0.06
2022-11-28T20:42:10.257Z,-0.03
2022-11-28T20:44:41.835Z,0.04
2022-11-28T20:47:13.805Z,0.09
2022-11-28T20:49:45.471Z,0.15
2022-11-28T20:52:17.214Z,0.25
2022-11-28T20:54:48.770Z,0.28
2022-11-28T20:57:22.191Z,0.28
2022-11-28T20:59:56.790Z,0.21
2022-11-28T21:02:28.353Z,0.23
2022-11-28T21:05:00.187Z,0.24
2022-11-28T21:07:31.748Z,0.22
2022-11-28T21:10:03.798Z,0.23
2022-11-28T21:12:35.593Z,0.20
2022-11-28T21:15:09.036Z,0.16
2022-11-28T21:17:39.518Z,0.12
2022-11-28T21:20:14.072Z,0.07
2022-11-28T21:22:45.669Z,0.01
2022-11-28T21:25:17.253Z,-0.06
2022-11-28T21:27:48.737Z,-0.12
2022-11-28T21:30:20.544Z,-0.19
2022-11-28T21:32:52.082Z,-0.25
2022-11-28T21:35:23.700Z,-0.32
2022-11-28T21:37:57.025Z,-0.37
2022-11-28T21:40:28.570Z,-0.43
2022-11-28T21:43:00.368Z,-0.48
2022-11-28T21:45:34.455Z,-0.56
2022-11-28T21:48:06.594Z,-0.59
2022-11-28T21:50:38.494Z,-0.59
2022-11-28T21:53:09.943Z,-0.57
2022-11-28T21:55:41.462Z,-0.53
2022-11-28T21:58:13.041Z,-0.47
2022-11-28T22:00:53.477Z,-0.43
2022-11-28T22:03:25.859Z,-0.35
2022-11-28T22:06:02.717Z,-0.27
2022-11-28T22:08:34.586Z,-0.20
2022-11-28T22:11:08.653Z,-0.12
2022-11-28T22:13:42.174Z,-0.05
2022-11-28T22:16:16.476Z,-0.05
2022-11-28T22:18:49.016Z,-0.07
2022-11-28T22:24:13.018Z,-0.15
2022-11-28T22:26:44.646Z,-0.19
2022-11-28T22:29:16.678Z,-0.23
2022-11-28T22:31:48.310Z,-0.35
2022-11-28T22:34:20.230Z,-0.42
2022-11-28T22:36:51.719Z,-0.45
2022-11-28T22:39:23.507Z,-0.49
2022-11-28T22:41:55.015Z,-0.56
2022-11-28T22:44:26.689Z,-0.59
2022-11-28T22:46:58.157Z,-0.64
2022-11-28T22:49:29.736Z,-0.71
2022-11-28T22:52:01.261Z,-0.78
2022-11-28T22:54:33.033Z,-0.84
2022-11-28T22:57:04.785Z,-0.90
2022-11-28T22:59:38.620Z,-0.95
2022-11-28T23:02:10.411Z,-1.02
2022-11-28T23:04:42.549Z,-1.07
2022-11-28T23:07:14.434Z,-1.10
2022-11-28T23:09:46.097Z,-1.10
2022-11-28T23:12:17.670Z,-1.09
2022-11-28T23:14:51.736Z,-1.04
2022-11-28T23:17:23.265Z,-0.96
2022-11-28T23:19:54.754Z,-0.90
2022-11-28T23:22:26.243Z,-0.80
2022-11-28T23:24:57.839Z,-0.73
2022-11-28T23:27:30.701Z,-0.64
2022-11-28T23:30:02.300Z,-0.64
2022-11-28T23:32:33.911Z,-0.65
2022-11-28T23:35:05.752Z,-0.67
2022-11-28T23:37:40.646Z,-0.68
2022-11-28T23:40:14.195Z,-0.73
2022-11-28T23:42:44.431Z,-0.78
2022-11-28T23:45:16.771Z,-0.85
2022-11-28T23:47:48.390Z,-0.96
2022-11-28T23:50:20.213Z,-0.99
2022-11-28T23:52:51.762Z,-1.06
2022-11-28T23:55:23.268Z,-1.11
2022-11-28T23:57:54.973Z,-1.15
